createdAt,value
2018-07-06T00:01:00.402Z,17.5
2018-07-06T00:02:00.403Z,17.54
2018-07-06T00:03:00.394Z,17.43
2018-07-06T00:04:00.392Z,17.55
2018-07-06T00:05:00.387Z,17.45
2018-07-06T00:06:00.384Z,17.55
2018-07-06T00:07:00.381Z,17.58
2018-07-06T00:08:00.378Z,17.55
2018-07-06T00:09:00.118Z,17.58
2018-07-06T00:10:00.372Z,17.43
2018-07-06T00:11:00.532Z,17.54
2018-07-06T00:12:00.373Z,17.5
2018-07-06T00:13:00.365Z,17.5
2018-07-06T00:14:00.358Z,17.49
2018-07-06T00:15:00.107Z,17.45
2018-07-06T00:16:00.101Z,17.46
2018-07-06T00:17:00.352Z,17.4
2018-07-06T00:18:00.349Z,17.39
2018-07-06T00:19:00.344Z,17.28
2018-07-06T00:20:00.344Z,17.42
2018-07-06T00:21:00.341Z,17.38
2018-07-06T00:22:00.337Z,17.3
2018-07-06T00:22:59.819Z,17.24
2018-07-06T00:24:00.074Z,17.15
2018-07-06T00:25:00.327Z,17.17
2018-07-06T00:26:00.329Z,17.21
2018-07-06T00:27:00.328Z,17.22
2018-07-06T00:28:00.061Z,17.22
2018-07-06T00:29:00.331Z,17.18
2018-07-06T00:30:00.315Z,17.24
2018-07-06T00:31:00.053Z,17.2
2018-07-06T00:32:00.303Z,17.07
2018-07-06T00:33:00.049Z,17.07
2018-07-06T00:34:00.299Z,17.07
2018-07-06T00:35:00.293Z,17.09
2018-07-06T00:36:00.289Z,17.07
2018-07-06T00:37:00.288Z,17.07
2018-07-06T00:38:00.287Z,17.05
2018-07-06T00:39:00.281Z,17.03
2018-07-06T00:40:00.277Z,17.09
2018-07-06T00:41:00.020Z,16.95
2018-07-06T00:42:00.280Z,17
2018-07-06T00:43:00.264Z,16.9
2018-07-06T00:44:00.269Z,16.97
2018-07-06T00:45:00.268Z,16.95
2018-07-06T00:45:59.747Z,16.94
2018-07-06T00:47:00.003Z,16.72
2018-07-06T00:47:59.994Z,16.74
2018-07-06T00:48:59.996Z,16.73
2018-07-06T00:49:59.986Z,16.74
2018-07-06T00:51:00.250Z,16.73
2018-07-06T00:52:00.241Z,16.67
2018-07-06T00:53:00.238Z,16.65
2018-07-06T00:54:00.231Z,16.52
2018-07-06T00:55:00.114Z,16.62
2018-07-06T00:56:00.222Z,16.51
2018-07-06T00:56:59.963Z,16.52
2018-07-06T00:58:00.216Z,16.59
2018-07-06T00:59:00.213Z,16.51
2018-07-06T01:00:00.219Z,16.49
2018-07-06T01:01:00.206Z,16.47
2018-07-06T01:02:00.173Z,16.48
2018-07-06T01:03:00.202Z,16.32
2018-07-06T01:03:59.948Z,16.45
2018-07-06T01:04:59.939Z,16.4
2018-07-06T01:06:00.187Z,16.3
2018-07-06T01:06:59.928Z,16.33
2018-07-06T01:08:00.186Z,16.25
2018-07-06T01:09:00.181Z,16.32
2018-07-06T01:10:00.174Z,16.29
2018-07-06T01:11:00.172Z,16.16
2018-07-06T01:12:00.168Z,16.26
2018-07-06T01:13:00.165Z,16.33
2018-07-06T01:13:59.905Z,16.27
2018-07-06T01:15:00.157Z,16.29
2018-07-06T01:16:00.160Z,16.25
2018-07-06T01:16:59.633Z,16.25
2018-07-06T01:18:00.148Z,16.21
2018-07-06T01:19:00.145Z,16.18
2018-07-06T01:20:00.143Z,16.13
2018-07-06T01:21:00.142Z,16.21
2018-07-06T01:22:00.128Z,16.18
2018-07-06T01:23:00.122Z,16.14
2018-07-06T01:24:00.129Z,16.08
2018-07-06T01:24:59.861Z,16.16
2018-07-06T01:26:00.116Z,16.14
2018-07-06T01:26:59.848Z,16.07
2018-07-06T01:27:59.847Z,16.08
2018-07-06T01:28:59.850Z,16.08
2018-07-06T01:30:00.113Z,16.02
2018-07-06T01:31:00.093Z,16.06
2018-07-06T01:32:00.093Z,16.06
2018-07-06T01:33:00.088Z,16.02
2018-07-06T01:34:00.078Z,16.04
2018-07-06T01:35:00.079Z,16.02
2018-07-06T01:36:00.075Z,15.95
2018-07-06T01:36:59.817Z,15.96
2018-07-06T01:38:00.067Z,15.98
2018-07-06T01:38:59.799Z,15.89
2018-07-06T01:40:00.061Z,15.93
2018-07-06T01:40:59.796Z,15.84
2018-07-06T01:42:00.047Z,15.88
2018-07-06T01:42:59.784Z,15.88
2018-07-06T01:44:00.046Z,15.88
2018-07-06T01:45:00.059Z,15.77
2018-07-06T01:46:00.035Z,15.81
2018-07-06T01:46:59.767Z,15.8
2018-07-06T01:47:59.765Z,15.77
2018-07-06T01:49:00.018Z,15.75
2018-07-06T01:50:00.012Z,15.73
2018-07-06T01:51:00.012Z,15.7
2018-07-06T01:52:00.006Z,15.68
2018-07-06T01:52:59.743Z,15.67
2018-07-06T01:54:00.001Z,15.65
2018-07-06T01:54:59.995Z,15.59
2018-07-06T01:55:59.987Z,15.6
2018-07-06T01:56:59.984Z,15.65
2018-07-06T01:57:59.725Z,15.63
2018-07-06T01:58:59.974Z,15.62
2018-07-06T01:59:59.973Z,15.62
2018-07-06T02:00:59.968Z,15.7
2018-07-06T02:01:59.961Z,15.65
2018-07-06T02:02:59.963Z,15.65
2018-07-06T02:03:59.700Z,15.71
2018-07-06T02:04:59.948Z,15.68
2018-07-06T02:05:59.945Z,15.7
2018-07-06T02:06:59.945Z,15.78
2018-07-06T02:07:59.936Z,15.73
2018-07-06T02:08:59.936Z,15.7
2018-07-06T02:09:59.929Z,15.78
2018-07-06T02:10:59.923Z,15.7
2018-07-06T02:11:59.917Z,15.92
2018-07-06T02:12:59.913Z,15.91
2018-07-06T02:13:59.651Z,15.86
2018-07-06T02:14:59.651Z,15.95
2018-07-06T02:15:59.903Z,15.89
2018-07-06T02:16:59.898Z,15.91
2018-07-06T02:17:59.896Z,15.88
2018-07-06T02:18:59.887Z,15.95
2018-07-06T02:19:59.891Z,15.96
2018-07-06T02:20:59.881Z,16.02
2018-07-06T02:21:59.875Z,15.96
2018-07-06T02:22:59.869Z,15.98
2018-07-06T02:23:59.611Z,16.04
2018-07-06T02:24:59.605Z,16.07
2018-07-06T02:25:59.857Z,16.02
2018-07-06T02:26:59.594Z,16.1
2018-07-06T02:27:59.853Z,16.02
2018-07-06T02:28:59.852Z,16.08
2018-07-06T02:29:59.838Z,16.16
2018-07-06T02:30:59.841Z,16.06
2018-07-06T02:31:59.835Z,16.16
2018-07-06T02:32:59.877Z,16.13
2018-07-06T02:33:59.569Z,16.21
2018-07-06T02:34:59.822Z,16.14
2018-07-06T02:35:59.820Z,16.18
2018-07-06T02:36:59.558Z,16.16
2018-07-06T02:37:59.811Z,16.22
2018-07-06T02:38:59.800Z,16.17
2018-07-06T02:39:59.296Z,16.13
2018-07-06T02:40:59.796Z,16.22
2018-07-06T02:41:59.280Z,16.22
2018-07-06T02:42:59.535Z,16.18
2018-07-06T02:43:59.520Z,16.16
2018-07-06T02:44:59.782Z,16.27
2018-07-06T02:45:59.515Z,16.21
2018-07-06T02:46:59.525Z,16.3
2018-07-06T02:47:59.528Z,16.29
2018-07-06T02:48:59.509Z,16.32
2018-07-06T02:49:59.770Z,16.25
2018-07-06T02:50:59.753Z,16.25
2018-07-06T02:51:59.755Z,16.22
2018-07-06T02:52:59.489Z,16.29
2018-07-06T02:53:59.747Z,16.33
2018-07-06T02:54:59.504Z,16.25
2018-07-06T02:55:59.479Z,16.27
2018-07-06T02:56:59.763Z,16.21
2018-07-06T02:57:59.738Z,16.22
2018-07-06T02:58:59.719Z,16.29
2018-07-06T02:59:59.465Z,16.26
2018-07-06T03:00:59.459Z,16.29
2018-07-06T03:01:59.450Z,16.22
2018-07-06T03:02:59.711Z,16.26
2018-07-06T03:03:59.444Z,16.29
2018-07-06T03:04:59.694Z,16.32
2018-07-06T03:05:59.430Z,16.17
2018-07-06T03:06:59.744Z,16.25
2018-07-06T03:07:59.428Z,16.3
2018-07-06T03:08:59.433Z,16.32
2018-07-06T03:09:59.440Z,16.27
2018-07-06T03:10:59.416Z,16.16
2018-07-06T03:11:59.410Z,16.18
2018-07-06T03:12:59.146Z,16.25
2018-07-06T03:13:59.663Z,16.29
2018-07-06T03:14:59.430Z,16.22
2018-07-06T03:15:59.661Z,16.3
2018-07-06T03:16:59.638Z,16.18
2018-07-06T03:17:59.641Z,16.3
2018-07-06T03:18:59.378Z,16.26
2018-07-06T03:19:59.373Z,16.3
2018-07-06T03:20:59.625Z,16.32
2018-07-06T03:21:59.638Z,16.27
2018-07-06T03:22:59.626Z,16.27
2018-07-06T03:23:59.358Z,16.32
2018-07-06T03:24:59.610Z,16.29
2018-07-06T03:25:59.609Z,16.21
2018-07-06T03:26:59.605Z,16.27
2018-07-06T03:28:00.132Z,16.32
2018-07-06T03:28:59.337Z,16.18
2018-07-06T03:29:59.334Z,16.29
2018-07-06T03:30:59.326Z,16.22
2018-07-06T03:31:59.321Z,16.29
2018-07-06T03:32:59.577Z,16.22
2018-07-06T03:33:59.315Z,16.22
2018-07-06T03:34:59.565Z,16.29
2018-07-06T03:35:59.571Z,16.13
2018-07-06T03:36:59.565Z,16.33
2018-07-06T03:37:59.551Z,16.16
2018-07-06T03:38:59.293Z,16.21
2018-07-06T03:39:59.542Z,16.17
2018-07-06T03:40:59.547Z,16.17
2018-07-06T03:41:59.537Z,16.25
2018-07-06T03:42:59.537Z,16.17
2018-07-06T03:43:59.526Z,16.25
2018-07-06T03:44:59.526Z,16.18
2018-07-06T03:45:59.518Z,16.13
2018-07-06T03:46:59.519Z,16.17
2018-07-06T03:47:59.552Z,16.21
2018-07-06T03:48:59.505Z,16.14
2018-07-06T03:49:59.502Z,16.14
2018-07-06T03:50:59.500Z,16.16
2018-07-06T03:51:59.494Z,16.18
2018-07-06T03:52:59.488Z,16.25
2018-07-06T03:53:59.483Z,16.14
2018-07-06T03:54:59.614Z,16.17
2018-07-06T03:55:59.222Z,16.18
2018-07-06T03:56:59.472Z,16.11
2018-07-06T03:57:59.469Z,16.16
2018-07-06T03:58:59.460Z,16.14
2018-07-06T03:59:59.461Z,16.13
2018-07-06T04:00:59.482Z,16.11
2018-07-06T04:01:59.460Z,16.07
2018-07-06T04:02:59.445Z,16.18
2018-07-06T04:03:59.442Z,16.18
2018-07-06T04:04:59.434Z,16.16
2018-07-06T04:05:59.443Z,16.13
2018-07-06T04:06:59.429Z,16.16
2018-07-06T04:07:59.168Z,16.07
2018-07-06T04:08:58.908Z,16.08
2018-07-06T04:09:59.161Z,16.07
2018-07-06T04:10:59.409Z,16.14
2018-07-06T04:11:59.412Z,16.21
2018-07-06T04:12:59.149Z,16.08
2018-07-06T04:13:59.396Z,16.14
2018-07-06T04:14:59.140Z,16.16
2018-07-06T04:15:59.522Z,16.08
2018-07-06T04:16:59.127Z,16.11
2018-07-06T04:17:59.126Z,16.16
2018-07-06T04:18:59.118Z,16.11
2018-07-06T04:19:59.374Z,16.16
2018-07-06T04:20:59.109Z,16.18
2018-07-06T04:21:59.107Z,16.18
2018-07-06T04:22:59.354Z,16.14
2018-07-06T04:23:59.355Z,16.18
2018-07-06T04:24:59.090Z,16.13
2018-07-06T04:25:59.356Z,16.22
2018-07-06T04:26:59.350Z,16.25
2018-07-06T04:27:59.082Z,16.26
2018-07-06T04:28:59.329Z,16.29
2018-07-06T04:29:59.323Z,16.29
2018-07-06T04:30:59.327Z,16.17
2018-07-06T04:31:59.328Z,16.16
2018-07-06T04:32:59.311Z,16.26
2018-07-06T04:33:59.308Z,16.29
2018-07-06T04:34:59.308Z,16.32
2018-07-06T04:35:59.304Z,16.26
2018-07-06T04:36:59.319Z,16.32
2018-07-06T04:37:59.292Z,16.32
2018-07-06T04:38:59.287Z,16.29
2018-07-06T04:39:59.288Z,16.25
2018-07-06T04:40:59.020Z,16.22
2018-07-06T04:41:59.282Z,16.27
2018-07-06T04:42:59.271Z,16.32
2018-07-06T04:43:59.268Z,16.29
2018-07-06T04:44:59.264Z,16.27
2018-07-06T04:45:59.261Z,16.27
2018-07-06T04:46:58.996Z,16.21
2018-07-06T04:47:59.247Z,16.18
2018-07-06T04:48:58.986Z,16.18
2018-07-06T04:49:58.982Z,16.3
2018-07-06T04:50:59.333Z,16.32
2018-07-06T04:51:59.245Z,16.32
2018-07-06T04:52:59.231Z,16.32
2018-07-06T04:53:59.221Z,16.3
2018-07-06T04:54:59.222Z,16.29
2018-07-06T04:55:59.216Z,16.32
2018-07-06T04:56:59.214Z,16.33
2018-07-06T04:57:59.217Z,16.3
2018-07-06T04:58:59.205Z,16.34
2018-07-06T04:59:59.196Z,16.33
2018-07-06T05:00:59.194Z,16.34
2018-07-06T05:01:59.196Z,16.33
2018-07-06T05:02:59.186Z,16.44
2018-07-06T05:03:58.927Z,16.51
2018-07-06T05:04:59.184Z,16.48
2018-07-06T05:05:59.183Z,16.48
2018-07-06T05:06:58.910Z,16.48
2018-07-06T05:07:58.907Z,16.51
2018-07-06T05:08:59.157Z,16.49
2018-07-06T05:09:59.154Z,16.39
2018-07-06T05:10:59.149Z,16.42
2018-07-06T05:11:58.888Z,16.36
2018-07-06T05:12:58.889Z,16.36
2018-07-06T05:13:58.892Z,16.4
2018-07-06T05:14:59.133Z,16.51
2018-07-06T05:15:59.133Z,16.55
2018-07-06T05:16:59.314Z,16.45
2018-07-06T05:17:59.160Z,16.57
2018-07-06T05:18:59.123Z,16.55
2018-07-06T05:19:59.116Z,16.51
2018-07-06T05:20:58.850Z,16.47
2018-07-06T05:21:59.107Z,16.47
2018-07-06T05:22:58.844Z,16.47
2018-07-06T05:23:59.099Z,16.47
2018-07-06T05:24:59.091Z,16.47
2018-07-06T05:25:59.087Z,16.45
2018-07-06T05:26:59.089Z,16.45
2018-07-06T05:27:59.083Z,16.45
2018-07-06T05:28:59.078Z,16.49
2018-07-06T05:29:59.072Z,16.48
2018-07-06T05:30:59.069Z,16.52
2018-07-06T05:31:58.881Z,16.49
2018-07-06T05:32:58.802Z,16.49
2018-07-06T05:33:58.800Z,16.52
2018-07-06T05:34:59.047Z,16.48
2018-07-06T05:35:58.790Z,16.48
2018-07-06T05:36:59.051Z,16.48
2018-07-06T05:37:58.940Z,16.34
2018-07-06T05:38:58.777Z,16.34
2018-07-06T05:39:59.029Z,16.42
2018-07-06T05:40:58.779Z,16.4
2018-07-06T05:41:59.035Z,16.39
2018-07-06T05:42:59.018Z,16.39
2018-07-06T05:43:59.017Z,16.42
2018-07-06T05:44:59.007Z,16.37
2018-07-06T05:45:59.004Z,16.32
2018-07-06T05:46:59.003Z,16.33
2018-07-06T05:47:59.133Z,16.36
2018-07-06T05:48:58.735Z,16.27
2018-07-06T05:49:58.990Z,16.37
2018-07-06T05:50:58.728Z,16.26
2018-07-06T05:51:58.977Z,16.32
2018-07-06T05:52:58.979Z,16.34
2018-07-06T05:53:59.126Z,16.32
2018-07-06T05:54:58.964Z,16.32
2018-07-06T05:55:58.965Z,16.26
2018-07-06T05:56:58.963Z,16.3
2018-07-06T05:57:58.693Z,16.27
2018-07-06T05:58:58.957Z,16.26
2018-07-06T05:59:58.948Z,16.27
2018-07-06T06:00:58.941Z,16.21
2018-07-06T06:01:58.942Z,16.29
2018-07-06T06:02:58.938Z,16.27
2018-07-06T06:03:58.924Z,16.3
2018-07-06T06:04:58.927Z,16.27
2018-07-06T06:05:58.918Z,16.27
2018-07-06T06:06:58.919Z,16.25
2018-07-06T06:07:58.914Z,16.26
2018-07-06T06:08:58.906Z,16.17
2018-07-06T06:09:58.644Z,16.22
2018-07-06T06:10:58.898Z,16.27
2018-07-06T06:11:58.897Z,16.32
2018-07-06T06:12:58.637Z,16.32
2018-07-06T06:13:58.625Z,16.3
2018-07-06T06:14:59.161Z,16.25
2018-07-06T06:15:58.887Z,16.29
2018-07-06T06:16:58.904Z,16.33
2018-07-06T06:17:58.607Z,16.33
2018-07-06T06:18:59.025Z,16.3
2018-07-06T06:19:58.862Z,16.3
2018-07-06T06:20:58.852Z,16.32
2018-07-06T06:21:58.857Z,16.27
2018-07-06T06:22:58.584Z,16.27
2018-07-06T06:23:58.841Z,16.33
2018-07-06T06:24:59.051Z,16.36
2018-07-06T06:25:58.831Z,16.32
2018-07-06T06:26:58.572Z,16.33
2018-07-06T06:27:58.822Z,16.27
2018-07-06T06:28:58.815Z,16.26
2018-07-06T06:29:58.557Z,16.3
2018-07-06T06:30:58.551Z,16.17
2018-07-06T06:31:58.807Z,16.36
2018-07-06T06:32:58.998Z,16.29
2018-07-06T06:33:59.189Z,16.27
2018-07-06T06:34:58.795Z,16.3
2018-07-06T06:35:58.787Z,16.4
2018-07-06T06:36:58.782Z,16.42
2018-07-06T06:37:58.779Z,16.58
2018-07-06T06:38:58.523Z,16.52
2018-07-06T06:39:58.770Z,16.4
2018-07-06T06:40:58.769Z,16.44
2018-07-06T06:41:58.764Z,16.47
2018-07-06T06:42:58.769Z,16.62
2018-07-06T06:43:58.761Z,16.63
2018-07-06T06:44:58.502Z,16.66
2018-07-06T06:45:58.747Z,16.72
2018-07-06T06:46:58.747Z,16.85
2018-07-06T06:47:58.483Z,16.82
2018-07-06T06:48:58.482Z,16.99
2018-07-06T06:49:58.477Z,17.03
2018-07-06T06:50:58.728Z,17.09
2018-07-06T06:51:58.466Z,17.03
2018-07-06T06:52:58.779Z,17.09
2018-07-06T06:53:58.713Z,17.05
2018-07-06T06:54:58.455Z,17.05
2018-07-06T06:55:58.707Z,17.07
2018-07-06T06:56:58.702Z,17.05
2018-07-06T06:57:58.703Z,17.03
2018-07-06T06:58:58.822Z,17.03
2018-07-06T06:59:58.690Z,16.91
2018-07-06T07:00:58.522Z,16.94
2018-07-06T07:01:58.690Z,16.87
2018-07-06T07:02:58.684Z,16.72
2018-07-06T07:03:58.677Z,16.57
2018-07-06T07:04:58.679Z,16.39
2018-07-06T07:05:58.415Z,16.29
2018-07-06T07:06:58.407Z,16.27
2018-07-06T07:07:58.405Z,16.04
2018-07-06T07:08:58.657Z,15.93
2018-07-06T07:09:58.650Z,15.98
2018-07-06T07:10:58.393Z,16.02
2018-07-06T07:11:58.646Z,15.99
2018-07-06T07:12:58.645Z,15.91
2018-07-06T07:13:59.316Z,15.98
2018-07-06T07:14:58.635Z,15.92
2018-07-06T07:15:58.630Z,15.81
2018-07-06T07:16:58.625Z,15.88
2018-07-06T07:17:58.623Z,15.86
2018-07-06T07:18:58.626Z,15.91
2018-07-06T07:19:58.613Z,15.91
2018-07-06T07:20:58.608Z,15.88
2018-07-06T07:21:58.603Z,15.96
2018-07-06T07:22:58.611Z,15.99
2018-07-06T07:23:58.083Z,15.91
2018-07-06T07:24:58.334Z,16.06
2018-07-06T07:25:58.585Z,16.11
2018-07-06T07:26:58.585Z,16.02
2018-07-06T07:27:58.324Z,16.04
2018-07-06T07:28:58.577Z,15.92
2018-07-06T07:29:58.056Z,16.04
2018-07-06T07:30:58.564Z,16.08
2018-07-06T07:31:58.569Z,16.1
2018-07-06T07:32:58.554Z,16.14
2018-07-06T07:33:58.551Z,16.16
2018-07-06T07:34:58.295Z,16.32
2018-07-06T07:35:58.285Z,16.27
2018-07-06T07:36:58.287Z,16.29
2018-07-06T07:37:58.540Z,16.17
2018-07-06T07:38:58.769Z,16.3
2018-07-06T07:39:58.527Z,16.3
2018-07-06T07:40:58.523Z,16.4
2018-07-06T07:41:58.262Z,16.49
2018-07-06T07:42:58.512Z,16.44
2018-07-06T07:43:58.259Z,16.58
2018-07-06T07:44:58.512Z,16.58
2018-07-06T07:45:58.508Z,16.62
2018-07-06T07:46:58.498Z,16.62
2018-07-06T07:47:58.494Z,16.59
2018-07-06T07:48:58.492Z,16.57
2018-07-06T07:49:58.490Z,16.65
2018-07-06T07:50:58.222Z,16.76
2018-07-06T07:51:58.485Z,16.72
2018-07-06T07:52:58.481Z,16.77
2018-07-06T07:53:58.477Z,16.82
2018-07-06T07:54:58.223Z,16.85
2018-07-06T07:55:58.461Z,16.81
2018-07-06T07:56:58.463Z,16.8
2018-07-06T07:57:57.938Z,16.85
2018-07-06T07:58:58.459Z,16.91
2018-07-06T07:59:58.458Z,16.91
2018-07-06T08:00:58.531Z,16.95
2018-07-06T08:01:58.452Z,17.02
2018-07-06T08:02:57.935Z,16.92
2018-07-06T08:03:58.432Z,17.12
2018-07-06T08:04:58.427Z,17.05
2018-07-06T08:05:58.166Z,17.06
2018-07-06T08:06:58.423Z,17.1
2018-07-06T08:07:58.161Z,17.06
2018-07-06T08:08:58.417Z,17.05
2018-07-06T08:09:58.154Z,17.06
2018-07-06T08:10:58.406Z,17.17
2018-07-06T08:11:58.396Z,17.32
2018-07-06T08:12:58.397Z,17.6
2018-07-06T08:14:04.908Z,17.79
2018-07-06T08:14:58.392Z,18.03
2018-07-06T08:15:58.382Z,18.34
2018-07-06T08:16:58.386Z,18.59
2018-07-06T08:17:58.391Z,18.72
2018-07-06T08:18:58.381Z,18.97
2018-07-06T08:19:58.374Z,19.06
2018-07-06T08:20:58.114Z,19.19
2018-07-06T08:21:58.368Z,19.32
2018-07-06T08:22:58.108Z,19.42
2018-07-06T08:23:58.377Z,19.45
2018-07-06T08:24:58.362Z,19.19
2018-07-06T08:25:58.361Z,19.13
2018-07-06T08:26:58.355Z,19.06
2018-07-06T08:27:58.098Z,18.97
2018-07-06T08:28:58.348Z,18.99
2018-07-06T08:29:57.839Z,18.82
2018-07-06T08:30:58.088Z,18.74
2018-07-06T08:31:58.349Z,18.66
2018-07-06T08:32:58.340Z,18.66
2018-07-06T08:33:58.336Z,18.57
2018-07-06T08:34:58.076Z,18.65
2018-07-06T08:35:58.338Z,18.65
2018-07-06T08:36:58.333Z,18.63
2018-07-06T08:37:57.817Z,18.68
2018-07-06T08:38:58.369Z,18.56
2018-07-06T08:39:58.558Z,18.49
2018-07-06T08:40:58.334Z,18.5
2018-07-06T08:41:58.318Z,18.47
2018-07-06T08:42:58.318Z,18.35
2018-07-06T08:43:58.318Z,18.31
2018-07-06T08:44:58.152Z,18.27
2018-07-06T08:45:58.053Z,18.17
2018-07-06T08:46:58.308Z,18.08
2018-07-06T08:47:58.309Z,17.98
2018-07-06T08:48:58.313Z,17.88
2018-07-06T08:49:58.322Z,17.86
2018-07-06T08:50:57.786Z,17.65
2018-07-06T08:51:58.040Z,17.6
2018-07-06T08:52:58.290Z,17.62
2018-07-06T08:53:58.291Z,17.65
2018-07-06T08:54:58.285Z,17.74
2018-07-06T08:55:58.283Z,17.74
2018-07-06T08:56:58.282Z,17.86
2018-07-06T08:57:58.283Z,17.86
2018-07-06T08:58:58.277Z,17.9
2018-07-06T08:59:58.268Z,17.94
2018-07-06T09:00:58.265Z,17.86
2018-07-06T09:01:58.011Z,17.86
2018-07-06T09:02:58.265Z,17.95
2018-07-06T09:03:58.319Z,18.06
2018-07-06T09:04:58.290Z,18.13
2018-07-06T09:05:58.002Z,18.21
2018-07-06T09:06:58.250Z,18.32
2018-07-06T09:07:58.256Z,18.27
2018-07-06T09:08:58.389Z,18.36
2018-07-06T09:09:57.988Z,18.38
2018-07-06T09:10:57.984Z,18.32
2018-07-06T09:11:58.329Z,18.38
2018-07-06T09:12:58.386Z,18.47
2018-07-06T09:13:58.311Z,18.54
2018-07-06T09:14:58.388Z,18.61
2018-07-06T09:15:58.120Z,18.59
2018-07-06T09:16:57.972Z,18.66
2018-07-06T09:17:58.337Z,18.54
2018-07-06T09:18:58.029Z,18.51
2018-07-06T09:19:59.709Z,18.5
2018-07-06T09:20:57.968Z,18.44
2018-07-06T09:21:58.262Z,18.44
2018-07-06T09:22:58.318Z,18.41
2018-07-06T09:23:58.293Z,18.35
2018-07-06T09:24:58.293Z,18.24
2018-07-06T09:25:59.420Z,18.32
2018-07-06T09:26:58.248Z,18.23
2018-07-06T09:27:58.210Z,18.24
2018-07-06T09:28:58.228Z,18.31
2018-07-06T09:29:58.232Z,18.44
2018-07-06T09:30:58.304Z,18.59
2018-07-06T09:31:57.938Z,18.74
2018-07-06T09:32:58.198Z,18.91
2018-07-06T09:33:58.050Z,18.96
2018-07-06T09:34:58.206Z,19.07
2018-07-06T09:35:58.571Z,19.12
2018-07-06T09:36:58.296Z,19.07
2018-07-06T09:37:58.013Z,19.09
2018-07-06T09:38:58.275Z,19.2
2018-07-06T09:39:58.246Z,19.2
2018-07-06T09:40:58.241Z,19.23
2018-07-06T09:41:58.254Z,19.16
2018-07-06T09:42:58.239Z,19.06
2018-07-06T09:43:58.271Z,19.02
2018-07-06T09:44:58.083Z,19.16
2018-07-06T09:45:58.305Z,19.24
2018-07-06T09:46:58.197Z,19.31
2018-07-06T09:47:57.990Z,19.37
2018-07-06T09:48:58.282Z,19.32
2018-07-06T09:49:58.027Z,19.25
2018-07-06T09:50:58.568Z,19.23
2018-07-06T09:51:58.296Z,19.12
2018-07-06T09:52:58.361Z,19.06
2018-07-06T09:53:58.240Z,19.05
2018-07-06T09:54:58.274Z,19.17
2018-07-06T09:55:58.149Z,19.32
2018-07-06T09:56:58.142Z,19.32
2018-07-06T09:57:58.237Z,19.57
2018-07-06T09:58:58.137Z,19.71
2018-07-06T09:59:58.185Z,19.93
2018-07-06T10:00:57.883Z,20.02
2018-07-06T10:01:58.140Z,20.02
2018-07-06T10:02:58.134Z,20.19
2018-07-06T10:03:57.876Z,20.15
2018-07-06T10:04:58.134Z,20.37
2018-07-06T10:05:58.129Z,20.4
2018-07-06T10:06:58.139Z,20.56
2018-07-06T10:07:58.126Z,20.63
2018-07-06T10:08:58.126Z,20.79
2018-07-06T10:09:58.472Z,20.86
2018-07-06T10:10:58.225Z,20.9
2018-07-06T10:11:58.127Z,20.9
2018-07-06T10:12:58.120Z,21.13
2018-07-06T10:13:58.123Z,21.22
2018-07-06T10:14:57.866Z,21.38
2018-07-06T10:15:57.861Z,21.53
2018-07-06T10:16:58.118Z,21.48
2018-07-06T10:17:58.121Z,21.59
2018-07-06T10:18:57.858Z,21.93
2018-07-06T10:19:58.378Z,22.05
2018-07-06T10:20:58.121Z,22.11
2018-07-06T10:21:58.240Z,22.16
2018-07-06T10:22:58.114Z,22.14
2018-07-06T10:23:58.118Z,21.93
2018-07-06T10:24:58.118Z,22.09
2018-07-06T10:25:58.119Z,22.15
2018-07-06T10:26:58.114Z,22.24
2018-07-06T10:27:58.114Z,22.15
2018-07-06T10:28:58.118Z,22.16
2018-07-06T10:29:58.122Z,22.18
2018-07-06T10:30:58.119Z,22.15
2018-07-06T10:31:58.116Z,22.14
2018-07-06T10:32:58.204Z,22
2018-07-06T10:33:57.995Z,21.89
2018-07-06T10:34:58.122Z,21.62
2018-07-06T10:35:57.865Z,21.45
2018-07-06T10:36:58.121Z,21.45
2018-07-06T10:37:58.127Z,21.34
2018-07-06T10:38:57.861Z,21.19
2018-07-06T10:39:58.788Z,21.38
2018-07-06T10:40:57.870Z,21.56
2018-07-06T10:41:58.119Z,21.7
2018-07-06T10:42:58.125Z,21.76
2018-07-06T10:43:58.119Z,21.96
2018-07-06T10:44:58.123Z,21.92
2018-07-06T10:45:58.120Z,21.83
2018-07-06T10:46:57.861Z,21.94
2018-07-06T10:47:58.121Z,22.07
2018-07-06T10:48:58.137Z,22.04
2018-07-06T10:49:58.130Z,22.05
2018-07-06T10:50:57.861Z,21.9
2018-07-06T10:51:57.615Z,21.8
2018-07-06T10:52:58.128Z,21.85
2018-07-06T10:53:58.120Z,21.66
2018-07-06T10:54:57.868Z,21.53
2018-07-06T10:55:57.868Z,21.37
2018-07-06T10:56:58.127Z,21.34
2018-07-06T10:57:58.127Z,21.3
2018-07-06T10:58:57.866Z,21.13
2018-07-06T10:59:57.872Z,21.25
2018-07-06T11:00:58.132Z,21.25
2018-07-06T11:01:57.872Z,21.49
2018-07-06T11:02:57.867Z,21.74
2018-07-06T11:03:57.867Z,21.92
2018-07-06T11:04:57.955Z,22.04
2018-07-06T11:05:57.871Z,22.09
2018-07-06T11:06:58.129Z,22.18
2018-07-06T11:07:58.128Z,22.36
2018-07-06T11:08:58.237Z,22.48
2018-07-06T11:09:58.129Z,22.42
2018-07-06T11:10:58.128Z,22.54
2018-07-06T11:11:58.135Z,22.54
2018-07-06T11:12:57.874Z,22.57
2018-07-06T11:13:57.873Z,22.52
2018-07-06T11:14:58.142Z,22.44
2018-07-06T11:15:57.873Z,22.24
2018-07-06T11:16:57.874Z,22.07
2018-07-06T11:17:58.136Z,21.76
2018-07-06T11:18:57.877Z,21.62
2018-07-06T11:19:57.882Z,21.45
2018-07-06T11:20:57.881Z,21.59
2018-07-06T11:21:58.135Z,22.02
2018-07-06T11:22:58.134Z,22.33
2018-07-06T11:23:58.139Z,22.6
2018-07-06T11:24:58.145Z,22.78
2018-07-06T11:25:58.143Z,22.78
2018-07-06T11:26:58.138Z,22.75
2018-07-06T11:27:58.140Z,22.73
2018-07-06T11:28:58.137Z,22.63
2018-07-06T11:29:58.139Z,22.51
2018-07-06T11:30:57.888Z,22.33
2018-07-06T11:31:58.149Z,22.15
2018-07-06T11:32:58.147Z,22.07
2018-07-06T11:33:58.144Z,22.26
2018-07-06T11:34:58.162Z,22.39
2018-07-06T11:35:58.148Z,22.52
2018-07-06T11:36:57.898Z,22.64
2018-07-06T11:37:58.312Z,22.84
2018-07-06T11:38:57.892Z,22.88
2018-07-06T11:39:57.896Z,23.1
2018-07-06T11:40:58.149Z,23.25
2018-07-06T11:41:58.154Z,23.47
2018-07-06T11:42:58.152Z,23.63
2018-07-06T11:43:58.156Z,23.78
2018-07-06T11:44:58.540Z,23.78
2018-07-06T11:45:58.162Z,23.64
2018-07-06T11:46:57.907Z,23.6
2018-07-06T11:47:57.903Z,23.55
2018-07-06T11:48:57.900Z,23.63
2018-07-06T11:49:58.157Z,23.57
2018-07-06T11:50:58.172Z,23.53
2018-07-06T11:51:57.912Z,23.37
2018-07-06T11:52:57.910Z,23.4
2018-07-06T11:53:57.908Z,23.37
2018-07-06T11:54:57.913Z,23.4
2018-07-06T11:55:57.991Z,23.5
2018-07-06T11:56:58.173Z,23.66
2018-07-06T11:57:58.174Z,23.78
2018-07-06T11:58:58.172Z,23.72
2018-07-06T11:59:58.177Z,23.72
2018-07-06T12:00:57.922Z,23.59
2018-07-06T12:01:58.349Z,23.47
2018-07-06T12:02:58.176Z,23.41
2018-07-06T12:03:58.332Z,23.42
2018-07-06T12:04:58.188Z,23.42
2018-07-06T12:05:58.187Z,23.38
2018-07-06T12:06:57.928Z,23.34
2018-07-06T12:07:57.931Z,23.22
2018-07-06T12:08:58.197Z,23.03
2018-07-06T12:09:57.932Z,22.85
2018-07-06T12:10:58.191Z,22.61
2018-07-06T12:11:58.195Z,22.54
2018-07-06T12:12:57.936Z,22.45
2018-07-06T12:13:58.194Z,22.52
2018-07-06T12:14:58.207Z,22.55
2018-07-06T12:15:58.221Z,22.63
2018-07-06T12:16:58.205Z,22.73
2018-07-06T12:17:58.200Z,22.73
2018-07-06T12:18:58.200Z,22.85
2018-07-06T12:19:58.202Z,22.94
2018-07-06T12:20:58.408Z,22.82
2018-07-06T12:21:58.216Z,22.89
2018-07-06T12:22:57.947Z,22.99
2018-07-06T12:23:58.206Z,22.85
2018-07-06T12:24:57.954Z,22.85
2018-07-06T12:25:57.954Z,22.76
2018-07-06T12:26:58.219Z,22.89
2018-07-06T12:27:58.410Z,23.16
2018-07-06T12:28:57.722Z,23.19
2018-07-06T12:29:57.955Z,23.09
2018-07-06T12:30:57.967Z,23.03
2018-07-06T12:31:58.227Z,23.06
2018-07-06T12:32:58.218Z,23.03
2018-07-06T12:33:58.224Z,23.22
2018-07-06T12:34:58.224Z,23.25
2018-07-06T12:35:58.227Z,23.25
2018-07-06T12:36:58.256Z,23.29
2018-07-06T12:37:58.231Z,23.29
2018-07-06T12:38:57.968Z,23.32
2018-07-06T12:39:58.234Z,23.26
2018-07-06T12:40:58.231Z,23.21
2018-07-06T12:41:58.235Z,23.28
2018-07-06T12:42:57.987Z,23.22
2018-07-06T12:43:57.978Z,23.18
2018-07-06T12:44:58.231Z,23.26
2018-07-06T12:45:58.241Z,23.26
2018-07-06T12:46:57.979Z,23.24
2018-07-06T12:47:57.982Z,23.24
2018-07-06T12:48:57.982Z,23.28
2018-07-06T12:49:58.238Z,23.4
2018-07-06T12:50:58.239Z,23.4
2018-07-06T12:51:57.996Z,23.48
2018-07-06T12:52:58.247Z,23.53
2018-07-06T12:53:58.246Z,23.42
2018-07-06T12:54:58.246Z,23.42